Time;durP1;ratioP1;P1;durP2;ratioP2;P2;SDS_P1;SDS_P2;PMS_P1;PMS_P2;Temp;Humidity;BMP_temperature;BMP_pressure;BME280_temperature;BME280_humidity;BME280_pressure;Samples;Min_cycle;Max_cycle;Signal;HPM_P1;HPM_P2
2022/02/07 00:01:42;;;;;;;17.77;3.30;;;5.80;99.90;;;;;;5061489;28;20181;-68
2022/02/07 00:04:15;;;;;;;14.43;3.07;;;5.80;99.90;;;;;;5059746;28;20212;-68
2022/02/07 00:06:44;;;;;;;14.00;2.50;;;5.70;99.90;;;;;;5063013;28;20193;-68
2022/02/07 00:09:14;;;;;;;8.57;2.43;;;5.60;99.90;;;;;;5059568;28;20859;-68
2022/02/07 00:11:42;;;;;;;11.57;2.80;;;5.50;99.90;;;;;;5059293;28;20689;-69
2022/02/07 00:14:11;;;;;;;9.93;2.33;;;5.50;99.90;;;;;;5066560;28;20204;-68
2022/02/07 00:16:42;;;;;;;5.23;2.27;;;5.50;99.90;;;;;;5060534;28;20218;-67
2022/02/07 00:19:12;;;;;;;13.17;3.17;;;5.50;99.90;;;;;;5062474;28;20674;-68
2022/02/07 00:21:40;;;;;;;8.87;2.37;;;5.50;99.90;;;;;;5062043;28;20228;-68
2022/02/07 00:24:09;;;;;;;9.80;2.53;;;5.50;99.90;;;;;;5061118;28;21666;-68
2022/02/07 00:26:38;;;;;;;12.20;2.63;;;5.60;99.90;;;;;;5078224;28;20355;-68
2022/02/07 00:29:07;;;;;;;4.63;2.13;;;5.60;99.90;;;;;;5058908;28;20204;-68
2022/02/07 00:31:36;;;;;;;8.63;2.80;;;5.60;99.90;;;;;;5061104;28;20211;-67
2022/02/07 00:34:04;;;;;;;8.67;2.37;;;5.60;99.90;;;;;;5065740;28;20197;-68
2022/02/07 00:36:33;;;;;;;9.00;2.17;;;5.60;99.90;;;;;;5053175;28;20293;-68
2022/02/07 00:39:08;;;;;;;12.60;2.70;;;5.60;99.90;;;;;;5056572;28;20245;-67
2022/02/07 00:41:43;;;;;;;9.20;2.20;;;5.50;99.90;;;;;;5057105;28;20586;-68
2022/02/07 00:44:15;;;;;;;8.63;2.60;;;5.50;99.90;;;;;;5061479;28;20234;-68
2022/02/07 00:46:50;;;;;;;7.63;2.40;;;5.50;99.90;;;;;;5060319;28;20291;-68
2022/02/07 00:49:19;;;;;;;11.20;2.70;;;5.40;99.90;;;;;;5067615;28;20789;-68
2022/02/07 00:51:48;;;;;;;8.57;2.40;;;5.40;99.90;;;;;;5083484;28;20566;-67
2022/02/07 00:54:17;;;;;;;14.27;3.00;;;5.40;99.90;;;;;;5082826;28;20213;-67
2022/02/07 00:56:46;;;;;;;5.63;2.37;;;5.40;99.90;;;;;;5078872;28;20203;-68
2022/02/07 00:59:15;;;;;;;14.77;2.60;;;5.30;99.90;;;;;;5079664;28;20191;-68
2022/02/07 01:01:44;;;;;;;13.20;2.70;;;5.20;99.90;;;;;;5065147;28;20718;-68
2022/02/07 01:04:12;;;;;;;7.23;2.30;;;5.10;99.90;;;;;;5054801;28;20184;-68
2022/02/07 01:06:41;;;;;;;10.50;2.63;;;5.00;99.90;;;;;;5042506;28;20204;-68
2022/02/07 01:09:15;;;;;;;8.10;2.53;;;5.00;99.90;;;;;;5048828;28;20186;-68
2022/02/07 01:11:59;;;;;;;9.17;2.47;;;4.80;99.90;;;;;;5065841;28;20272;-68
2022/02/07 01:14:41;;;;;;;12.90;2.67;;;4.80;99.90;;;;;;5058881;28;20298;-68
2022/02/07 01:47:51;;;;;;;13.50;2.80;;;4.90;99.90;;;;;;5056123;28;20227;-68
2022/02/07 01:50:54;;;;;;;6.90;2.40;;;4.90;99.90;;;;;;5057806;28;20306;-68
2022/02/07 01:53:33;;;;;;;14.73;2.53;;;4.90;99.90;;;;;;5082904;28;20195;-68
2022/02/07 01:56:05;;;;;;;15.37;2.70;;;4.80;99.90;;;;;;5062787;28;20248;-67
2022/02/07 01:58:34;;;;;;;15.43;3.13;;;4.80;99.90;;;;;;5058176;28;20211;-67
2022/02/07 02:01:02;;;;;;;8.67;2.60;;;4.80;99.90;;;;;;5078345;28;20248;-68
2022/02/07 02:03:32;;;;;;;11.53;2.70;;;4.80;99.90;;;;;;5064169;28;20208;-68
2022/02/07 02:06:07;;;;;;;12.90;2.60;;;4.70;99.90;;;;;;5083724;28;20199;-68
2022/02/07 02:08:39;;;;;;;15.00;3.33;;;4.70;99.90;;;;;;5076092;28;20284;-68
2022/02/07 02:11:09;;;;;;;13.60;2.73;;;4.60;99.90;;;;;;5076130;28;20299;-67
2022/02/07 02:13:51;;;;;;;7.10;2.40;;;4.50;99.90;;;;;;5060341;28;20253;-67
2022/02/07 02:16:25;;;;;;;13.70;2.77;;;4.40;99.90;;;;;;5079725;28;20249;-68
2022/02/07 02:33:26;;;;;;;12.10;2.90;;;4.20;99.90;;;;;;5062556;28;20199;-68
2022/02/07 02:36:15;;;;;;;11.13;2.70;;;4.20;99.90;;;;;;5063969;28;20199;-67
2022/02/07 02:38:54;;;;;;;9.03;2.97;;;4.10;99.90;;;;;;5074986;28;20191;-68
2022/02/07 02:46:55;;;;;;;9.80;2.90;;;4.00;99.90;;;;;;5081353;28;20203;-68
2022/02/07 02:49:31;;;;;;;13.40;2.63;;;3.90;99.90;;;;;;5058958;28;20231;-68
2022/02/07 02:51:59;;;;;;;15.43;2.70;;;3.90;99.90;;;;;;5081945;28;20214;-68
2022/02/07 02:54:28;;;;;;;10.93;2.57;;;3.90;99.90;;;;;;5078355;28;20195;-68
2022/02/07 02:56:57;;;;;;;10.70;2.43;;;3.80;99.90;;;;;;5077998;28;20298;-68
2022/02/07 02:59:26;;;;;;;9.07;3.10;;;3.80;99.90;;;;;;5066133;28;20199;-68
2022/02/07 03:01:54;;;;;;;8.43;2.50;;;3.80;99.90;;;;;;5055499;28;20188;-68
2022/02/07 03:04:23;;;;;;;15.97;2.83;;;3.80;99.90;;;;;;5073317;28;20291;-67
2022/02/07 03:06:52;;;;;;;9.07;2.40;;;3.80;99.90;;;;;;5060945;28;20226;-68
2022/02/07 03:09:20;;;;;;;14.60;2.80;;;3.80;99.90;;;;;;5057194;28;20218;-68
2022/02/07 03:11:49;;;;;;;11.73;2.70;;;3.80;99.90;;;;;;5059526;28;20212;-67
2022/02/07 03:14:23;;;;;;;18.13;2.53;;;3.80;99.90;;;;;;5085136;28;20200;-68
2022/02/07 03:16:51;;;;;;;14.17;2.80;;;3.80;99.90;;;;;;5085742;28;20200;-68
2022/02/07 03:19:19;;;;;;;9.53;2.37;;;3.90;99.90;;;;;;5083218;28;20191;-67
2022/02/07 03:21:48;;;;;;;9.20;2.47;;;3.90;99.90;;;;;;5080106;28;20275;-68
2022/02/07 03:24:19;;;;;;;10.20;2.83;;;4.00;99.90;;;;;;5063442;28;20638;-68
2022/02/07 03:26:47;;;;;;;10.00;2.60;;;4.00;99.90;;;;;;5082001;28;20215;-68
2022/02/07 03:29:16;;;;;;;8.60;2.33;;;4.00;99.90;;;;;;5060633;28;20188;-68
2022/02/07 03:31:46;;;;;;;12.70;2.90;;;4.00;99.90;;;;;;5082070;28;20215;-68
2022/02/07 03:34:14;;;;;;;6.70;2.77;;;4.00;99.90;;;;;;5059547;28;20249;-68
2022/02/07 03:36:43;;;;;;;5.90;2.57;;;3.90;99.90;;;;;;5077660;28;20187;-68
2022/02/07 03:39:12;;;;;;;11.33;2.50;;;3.80;99.90;;;;;;5076440;28;20275;-67
2022/02/07 03:41:40;;;;;;;13.57;2.97;;;3.70;99.90;;;;;;5081359;28;20220;-68
2022/02/07 03:44:09;;;;;;;10.17;2.27;;;3.70;99.90;;;;;;5082631;28;20196;-68
2022/02/07 03:46:37;;;;;;;8.17;2.50;;;3.70;99.90;;;;;;5081507;28;20196;-67
2022/02/07 03:49:07;;;;;;;14.70;2.50;;;3.70;99.90;;;;;;5087015;28;20306;-68
2022/02/07 03:51:39;;;;;;;11.87;2.50;;;3.60;99.90;;;;;;5080422;28;20215;-68
2022/02/07 03:54:08;;;;;;;11.87;2.50;;;3.50;99.90;;;;;;5074895;28;20693;-68
2022/02/07 03:56:38;;;;;;;11.80;2.60;;;3.50;99.90;;;;;;5083905;28;20206;-68
2022/02/07 03:59:06;;;;;;;6.10;2.30;;;3.40;99.90;;;;;;5083296;28;20183;-68
2022/02/07 04:01:36;;;;;;;8.90;2.70;;;3.40;99.90;;;;;;5076485;28;20208;-68
2022/02/07 04:04:05;;;;;;;7.07;2.60;;;3.40;99.90;;;;;;5081913;28;20191;-68
2022/02/07 04:06:34;;;;;;;11.47;4.10;;;3.40;99.90;;;;;;5067734;28;20200;-67
2022/02/07 04:09:07;;;;;;;10.07;3.00;;;3.40;99.90;;;;;;5074179;28;20616;-68
2022/02/07 04:11:42;;;;;;;9.10;3.20;;;3.30;99.90;;;;;;5081154;28;20196;-68
2022/02/07 04:14:18;;;;;;;5.27;3.03;;;3.30;99.90;;;;;;5076916;28;20660;-67
2022/02/07 04:16:47;;;;;;;14.33;3.03;;;3.30;99.90;;;;;;5079720;28;20541;-68
2022/02/07 04:19:18;;;;;;;13.03;2.60;;;3.20;99.90;;;;;;5065763;28;20581;-67
2022/02/07 04:21:51;;;;;;;9.00;3.00;;;3.20;99.90;;;;;;5064775;28;20269;-68
2022/02/07 04:24:19;;;;;;;13.50;3.10;;;3.30;99.90;;;;;;5066062;28;20188;-68
2022/02/07 04:26:48;;;;;;;12.67;3.00;;;3.30;99.90;;;;;;5059637;28;20321;-68
2022/02/07 04:29:16;;;;;;;10.93;3.93;;;3.40;99.90;;;;;;5074679;28;20261;-68
2022/02/07 04:31:45;;;;;;;11.57;3.40;;;3.40;99.90;;;;;;5086093;28;20191;-68
2022/02/07 04:34:13;;;;;;;12.10;3.20;;;3.50;99.90;;;;;;5083853;28;20187;-68
2022/02/07 04:36:44;;;;;;;12.23;4.90;;;3.50;99.90;;;;;;5055300;28;20196;-67
2022/02/07 04:39:14;;;;;;;17.40;4.27;;;3.60;99.90;;;;;;5082506;28;20231;-68
2022/02/07 04:41:43;;;;;;;16.70;4.40;;;3.60;99.90;;;;;;5075312;28;20191;-68
2022/02/07 04:44:13;;;;;;;13.00;3.23;;;3.60;99.90;;;;;;5083901;28;20546;-68
2022/02/07 04:46:56;;;;;;;8.90;2.70;;;3.60;99.90;;;;;;5059844;28;20535;-67
2022/02/07 04:49:42;;;;;;;12.07;3.00;;;3.70;99.90;;;;;;5071403;28;20875;-68
2022/02/07 04:52:23;;;;;;;14.77;3.03;;;3.70;99.90;;;;;;5082094;28;20261;-68
2022/02/07 04:55:00;;;;;;;7.13;3.40;;;3.70;99.90;;;;;;5062222;28;20645;-67
2022/02/07 04:57:47;;;;;;;10.30;3.53;;;3.60;99.90;;;;;;5058670;28;20184;-68
2022/02/07 05:00:48;;;;;;;16.07;3.50;;;3.70;99.90;;;;;;5062626;28;20200;-68
2022/02/07 05:03:20;;;;;;;10.63;3.57;;;3.80;99.90;;;;;;5058991;28;20279;-68
2022/02/07 05:14:09;;;;;;;16.73;3.43;;;3.70;99.90;;;;;;5073823;28;20211;-67
2022/02/07 05:16:38;;;;;;;10.63;3.83;;;3.80;99.90;;;;;;5058188;28;20878;-68
2022/02/07 05:19:06;;;;;;;9.07;3.90;;;3.80;99.90;;;;;;5080471;28;20256;-68
2022/02/07 05:21:35;;;;;;;10.13;3.23;;;3.80;99.90;;;;;;5081352;28;20192;-67
2022/02/07 05:24:04;;;;;;;8.60;2.93;;;3.80;99.90;;;;;;5049600;28;20191;-68
2022/02/07 05:26:34;;;;;;;15.50;3.07;;;3.80;99.90;;;;;;5079824;28;20183;-68
2022/02/07 05:29:05;;;;;;;14.17;3.00;;;3.80;99.90;;;;;;5076158;28;20716;-68
2022/02/07 05:31:33;;;;;;;10.60;2.90;;;3.80;99.90;;;;;;5082999;28;20207;-68
2022/02/07 05:34:02;;;;;;;16.50;2.80;;;3.80;99.90;;;;;;5066361;28;20734;-67
2022/02/07 05:36:31;;;;;;;8.27;2.50;;;3.80;99.90;;;;;;5081005;28;20215;-68
2022/02/07 05:39:01;;;;;;;7.57;2.80;;;3.80;99.90;;;;;;5085627;28;20555;-67
2022/02/07 05:41:30;;;;;;;8.67;2.80;;;3.80;99.90;;;;;;5079705;28;20557;-68
2022/02/07 05:44:00;;;;;;;13.53;3.20;;;3.80;99.90;;;;;;5077444;28;20679;-68
2022/02/07 05:46:28;;;;;;;7.57;2.57;;;3.80;99.90;;;;;;5078564;28;20214;-68
2022/02/07 05:48:57;;;;;;;10.27;2.73;;;3.80;99.90;;;;;;5080377;28;20230;-68
2022/02/07 05:51:28;;;;;;;9.07;2.90;;;3.70;99.90;;;;;;5062645;28;20204;-68
2022/02/07 05:53:56;;;;;;;10.27;2.70;;;3.70;99.90;;;;;;5060725;28;20605;-67
2022/02/07 05:56:24;;;;;;;12.47;2.63;;;3.80;99.90;;;;;;5078115;28;20556;-68
2022/02/07 05:58:53;;;;;;;9.23;3.20;;;3.80;99.90;;;;;;5081295;28;20191;-68
2022/02/07 06:01:23;;;;;;;7.37;3.87;;;3.70;99.90;;;;;;5077473;28;20210;-67
2022/02/07 06:03:51;;;;;;;11.87;2.77;;;3.70;99.90;;;;;;5079888;28;20195;-68
2022/02/07 06:06:20;;;;;;;10.70;3.07;;;3.70;99.90;;;;;;5058466;28;20334;-67
2022/02/07 06:08:48;;;;;;;14.60;2.80;;;3.70;99.90;;;;;;5074530;28;20391;-68
2022/02/07 06:11:16;;;;;;;13.80;2.73;;;3.80;99.90;;;;;;5075144;28;20730;-68
2022/02/07 06:13:45;;;;;;;11.77;3.70;;;3.80;99.90;;;;;;5074647;28;20243;-68
2022/02/07 06:16:17;;;;;;;11.73;3.47;;;3.80;99.90;;;;;;5052579;28;20188;-67
2022/02/07 06:18:49;;;;;;;13.20;3.63;;;3.80;99.90;;;;;;5075464;28;20863;-68
2022/02/07 06:21:18;;;;;;;15.27;3.40;;;3.80;99.90;;;;;;5078257;28;20207;-68
2022/02/07 06:23:46;;;;;;;11.00;2.60;;;3.70;99.90;;;;;;5083176;28;20276;-68
2022/02/07 06:26:15;;;;;;;10.83;2.80;;;3.60;99.90;;;;;;5078071;28;20650;-68
2022/02/07 06:28:43;;;;;;;8.30;2.50;;;3.60;99.90;;;;;;5060747;28;20192;-67
2022/02/07 06:31:12;;;;;;;10.27;2.93;;;3.60;99.90;;;;;;5058346;28;20645;-67
2022/02/07 06:33:40;;;;;;;11.27;3.00;;;3.60;99.90;;;;;;5073888;28;20809;-68
2022/02/07 06:36:10;;;;;;;6.47;3.30;;;3.60;99.90;;;;;;5074348;28;20716;-67
2022/02/07 06:38:39;;;;;;;13.37;3.80;;;3.60;99.90;;;;;;5077890;28;20207;-68
2022/02/07 06:41:07;;;;;;;12.90;3.50;;;3.60;99.90;;;;;;5056827;28;20807;-68
2022/02/07 06:43:36;;;;;;;15.77;4.70;;;3.60;99.90;;;;;;5058930;28;20192;-67
2022/02/07 06:46:05;;;;;;;14.73;5.27;;;3.60;99.90;;;;;;5063070;28;20810;-68
2022/02/07 06:48:35;;;;;;;13.43;4.10;;;3.60;99.90;;;;;;5080010;28;20251;-68
2022/02/07 06:51:05;;;;;;;9.43;2.87;;;3.60;99.90;;;;;;5084043;28;20867;-68
2022/02/07 06:53:35;;;;;;;7.70;3.70;;;3.70;99.90;;;;;;5080171;28;20575;-68
2022/02/07 06:56:04;;;;;;;8.83;2.97;;;3.70;99.90;;;;;;5079064;28;20251;-68
2022/02/07 06:58:33;;;;;;;9.20;2.70;;;3.60;99.90;;;;;;5082163;28;20745;-68
2022/02/07 07:01:04;;;;;;;14.40;2.60;;;3.60;99.90;;;;;;5085180;28;20183;-68
2022/02/07 07:03:34;;;;;;;6.67;2.60;;;3.60;99.90;;;;;;5079824;28;20704;-68
2022/02/07 07:06:03;;;;;;;11.87;2.70;;;3.60;99.90;;;;;;5069046;28;20952;-68
2022/02/07 07:08:36;;;;;;;14.73;3.50;;;3.60;99.90;;;;;;5067964;28;20292;-68
2022/02/07 07:11:06;;;;;;;11.20;2.70;;;3.60;99.90;;;;;;5071721;28;20588;-67
2022/02/07 07:13:41;;;;;;;13.67;2.83;;;3.60;99.90;;;;;;5078352;28;20289;-67
2022/02/07 07:16:36;;;;;;;9.10;2.80;;;3.60;99.90;;;;;;5088832;28;20234;-68
2022/02/07 07:19:04;;;;;;;9.33;2.57;;;3.60;99.90;;;;;;5065223;28;20199;-68
2022/02/07 07:21:34;;;;;;;5.83;3.03;;;3.60;99.90;;;;;;5079581;28;20672;-67
2022/02/07 07:24:03;;;;;;;12.10;3.07;;;3.60;99.90;;;;;;5076082;28;20200;-67
2022/02/07 07:26:33;;;;;;;10.00;3.00;;;3.60;99.90;;;;;;5083130;28;20246;-67
2022/02/07 07:29:07;;;;;;;20.80;3.60;;;3.60;99.90;;;;;;5068137;28;20196;-67
2022/02/07 07:31:41;;;;;;;11.97;3.73;;;3.60;99.90;;;;;;5084564;28;20233;-67
2022/02/07 07:34:09;;;;;;;10.10;4.17;;;3.60;99.90;;;;;;5065222;28;20655;-66
2022/02/07 07:36:41;;;;;;;14.13;3.50;;;3.60;99.90;;;;;;5079228;28;20195;-67
2022/02/07 07:39:09;;;;;;;12.97;3.53;;;3.60;99.90;;;;;;5079393;28;20264;-67
2022/02/07 07:41:40;;;;;;;10.87;3.17;;;3.70;99.90;;;;;;5083406;28;20208;-70
2022/02/07 07:44:09;;;;;;;10.13;3.80;;;3.60;99.90;;;;;;5087269;28;20256;-67
2022/02/07 07:46:37;;;;;;;16.40;3.60;;;3.60;99.90;;;;;;5061914;28;20196;-67
2022/02/07 07:49:12;;;;;;;17.20;3.60;;;3.60;99.90;;;;;;5077543;28;20289;-67
2022/02/07 07:51:51;;;;;;;12.20;3.50;;;3.60;99.90;;;;;;5063655;28;20206;-67
2022/02/07 07:54:26;;;;;;;9.97;3.37;;;3.60;99.90;;;;;;5067844;28;20207;-67
2022/02/07 08:02:29;;;;;;;9.60;3.40;;;3.60;99.90;;;;;;5083068;28;20712;-67
2022/02/07 08:04:59;;;;;;;9.37;3.10;;;3.70;99.90;;;;;;5083229;28;20214;-68
2022/02/07 08:07:33;;;;;;;7.47;2.87;;;3.70;99.90;;;;;;5060164;28;21026;-67
2022/02/07 08:13:03;;;;;;;11.93;3.10;;;3.80;99.90;;;;;;4988683;28;20202;-67
2022/02/07 08:15:31;;;;;;;8.10;2.97;;;3.80;99.90;;;;;;4985768;28;20241;-67
2022/02/07 08:18:00;;;;;;;14.97;3.40;;;3.90;99.90;;;;;;5039759;28;20215;-67
2022/02/07 08:20:28;;;;;;;8.33;2.70;;;3.90;99.90;;;;;;5083428;28;20205;-67
2022/02/07 08:23:01;;;;;;;11.37;2.67;;;4.00;99.90;;;;;;5076859;28;20191;-67
2022/02/07 08:25:30;;;;;;;7.23;2.83;;;4.10;99.90;;;;;;5084574;28;20234;-67
2022/02/07 08:27:59;;;;;;;9.93;2.93;;;4.20;99.90;;;;;;5063364;28;20196;-67
2022/02/07 08:30:29;;;;;;;7.37;3.10;;;4.30;99.90;;;;;;5081167;28;20191;-67
2022/02/07 08:33:06;;;;;;;11.13;3.10;;;4.40;99.90;;;;;;5070697;28;20196;-67
2022/02/07 08:35:34;;;;;;;9.90;3.10;;;4.50;99.90;;;;;;5081179;28;20304;-67
2022/02/07 08:38:03;;;;;;;11.33;3.10;;;4.60;99.90;;;;;;5078954;28;20195;-67
2022/02/07 08:40:33;;;;;;;17.27;3.00;;;4.70;99.90;;;;;;5083216;28;20679;-68
2022/02/07 08:43:02;;;;;;;10.13;2.53;;;4.80;99.90;;;;;;5073455;28;20756;-67
2022/02/07 08:45:31;;;;;;;7.43;2.93;;;5.00;99.90;;;;;;5085226;28;20191;-68
2022/02/07 08:48:00;;;;;;;8.87;2.63;;;5.10;99.90;;;;;;5063939;28;20192;-67
2022/02/07 08:50:30;;;;;;;17.37;3.03;;;5.30;99.90;;;;;;5051443;28;20198;-67
2022/02/07 08:53:00;;;;;;;11.53;3.60;;;5.50;99.90;;;;;;5086230;28;20200;-67
2022/02/07 08:55:32;;;;;;;9.67;2.90;;;5.50;99.90;;;;;;5082929;28;20246;-67
2022/02/07 08:58:07;;;;;;;12.93;3.33;;;5.60;99.90;;;;;;5085127;28;20786;-67
2022/02/07 09:00:49;;;;;;;11.27;3.07;;;5.60;99.90;;;;;;5062399;28;20192;-68
2022/02/07 09:06:16;;;;;;;5.67;2.60;;;5.80;99.90;;;;;;5051755;28;20202;-68
2022/02/07 09:08:54;;;;;;;6.30;2.73;;;5.90;99.90;;;;;;5059365;28;20580;-67
2022/02/07 09:11:24;;;;;;;5.20;2.50;;;6.10;99.90;;;;;;5079233;28;20203;-67
2022/02/07 09:13:55;;;;;;;10.37;2.90;;;6.20;99.90;;;;;;5063945;28;20191;-67
2022/02/07 09:16:30;;;;;;;13.43;3.00;;;6.20;99.90;;;;;;5077090;28;20814;-67
2022/02/07 09:19:02;;;;;;;8.63;2.70;;;6.40;99.90;;;;;;5077128;28;20274;-67
2022/02/07 09:21:31;;;;;;;9.87;2.60;;;6.40;99.90;;;;;;5047697;28;20195;-68
2022/02/07 09:24:04;;;;;;;10.07;2.70;;;6.40;99.90;;;;;;5065863;28;20200;-68
2022/02/07 09:26:33;;;;;;;10.50;3.20;;;6.50;99.90;;;;;;5078726;28;20200;-68
2022/02/07 09:29:02;;;;;;;14.80;6.20;;;6.50;99.90;;;;;;5078277;28;20204;-67
2022/02/07 09:31:32;;;;;;;15.73;6.00;;;6.70;99.90;;;;;;5076493;28;20196;-67
2022/02/07 09:34:00;;;;;;;12.07;3.50;;;6.90;99.90;;;;;;5057299;28;20688;-68
2022/02/07 09:36:29;;;;;;;12.13;2.97;;;7.00;99.90;;;;;;5064829;28;20210;-68
2022/02/07 09:38:58;;;;;;;10.33;4.53;;;7.20;99.90;;;;;;5064079;28;20200;-67
2022/02/07 09:41:30;;;;;;;17.93;7.40;;;7.30;99.90;;;;;;5060976;28;20257;-67
2022/02/07 09:44:01;;;;;;;8.23;2.57;;;7.40;99.90;;;;;;5078135;28;20264;-68
2022/02/07 09:46:43;;;;;;;8.23;2.97;;;7.60;99.90;;;;;;5079976;28;20195;-68
2022/02/07 09:49:13;;;;;;;11.37;2.90;;;7.90;99.90;;;;;;5057503;28;20729;-68
2022/02/07 09:51:45;;;;;;;13.33;2.90;;;8.00;99.90;;;;;;5062156;28;20204;-68
2022/02/07 09:54:18;;;;;;;11.03;3.10;;;8.30;99.90;;;;;;5058902;28;20203;-68
2022/02/07 09:56:47;;;;;;;11.03;2.80;;;8.40;99.90;;;;;;5060320;28;20254;-68
2022/02/07 09:59:17;;;;;;;10.97;3.03;;;8.60;99.90;;;;;;5055990;28;20277;-68
2022/02/07 10:01:51;;;;;;;8.83;2.80;;;8.70;99.90;;;;;;5063387;28;20231;-68
2022/02/07 10:04:27;;;;;;;10.13;2.67;;;8.90;99.90;;;;;;5063070;28;20209;-68
2022/02/07 10:07:06;;;;;;;8.93;2.33;;;9.00;99.90;;;;;;5060034;28;20198;-68
2022/02/07 10:12:33;;;;;;;9.37;2.93;;;9.10;99.90;;;;;;5058993;28;20277;-68
2022/02/07 10:18:03;;;;;;;12.10;3.07;;;9.40;99.90;;;;;;5047243;28;20206;-69
2022/02/07 10:21:19;;;;;;;11.50;2.93;;;9.50;99.90;;;;;;5060500;28;20196;-69
2022/02/07 10:38:16;;;;;;;11.33;2.90;;;10.20;99.90;;;;;;5047059;28;20212;-69
2022/02/07 10:41:06;;;;;;;6.40;2.40;;;10.20;99.90;;;;;;5056115;28;20200;-69
2022/02/07 10:43:58;;;;;;;7.47;2.60;;;10.20;99.90;;;;;;5058062;28;20228;-69
2022/02/07 10:46:32;;;;;;;7.87;2.50;;;10.20;99.90;;;;;;5058614;28;20222;-69
2022/02/07 10:49:08;;;;;;;9.33;2.90;;;10.30;99.90;;;;;;5072420;28;20222;-69
2022/02/07 10:51:38;;;;;;;8.90;2.60;;;10.40;99.90;;;;;;5087394;28;20187;-69
2022/02/07 10:54:09;;;;;;;12.40;2.30;;;10.50;99.90;;;;;;5080903;28;20198;-69
2022/02/07 10:56:41;;;;;;;7.83;1.90;;;10.80;99.90;;;;;;5080328;28;20583;-69
2022/02/07 10:59:13;;;;;;;7.57;2.43;;;11.10;99.90;;;;;;5063746;28;20299;-70
2022/02/07 11:02:16;;;;;;;4.37;1.90;;;11.20;99.90;;;;;;5067486;28;20661;-69
2022/02/07 11:04:45;;;;;;;7.00;2.40;;;11.30;99.90;;;;;;5065856;28;20188;-69
2022/02/07 11:07:17;;;;;;;5.17;2.27;;;11.20;99.90;;;;;;5064477;28;20183;-69
2022/02/07 11:10:02;;;;;;;5.63;2.27;;;11.40;99.90;;;;;;5078211;28;20208;-69
2022/02/07 11:15:28;;;;;;;8.33;2.87;;;11.10;99.90;;;;;;5039566;28;20590;-69
2022/02/07 11:18:10;;;;;;;8.23;2.90;;;11.20;99.90;;;;;;5081302;28;20845;-70
2022/02/07 11:21:02;;;;;;;7.30;2.70;;;11.50;99.90;;;;;;5081488;28;20215;-70
2022/02/07 11:23:46;;;;;;;7.13;2.83;;;11.30;99.90;;;;;;5082505;28;20207;-69
2022/02/07 11:26:31;;;;;;;9.77;3.03;;;11.50;99.90;;;;;;5078584;28;20661;-69
2022/02/07 11:29:00;;;;;;;4.07;2.37;;;11.60;99.90;;;;;;5084964;28;20203;-69
2022/02/07 11:31:40;;;;;;;6.00;2.30;;;11.70;99.90;;;;;;5072781;28;20189;-70
2022/02/07 11:34:12;;;;;;;5.43;2.20;;;11.90;99.90;;;;;;5080795;28;20196;-69
2022/02/07 11:36:42;;;;;;;10.40;2.70;;;12.10;99.90;;;;;;5085112;28;20228;-70
2022/02/07 11:39:14;;;;;;;6.80;2.90;;;12.20;99.90;;;;;;5079039;28;20205;-70
2022/02/07 11:42:12;;;;;;;7.67;3.20;;;12.20;99.90;;;;;;5061278;28;20199;-70
2022/02/07 11:45:20;;;;;;;8.47;2.53;;;12.00;99.90;;;;;;5085620;28;20187;-70
2022/02/07 11:47:49;;;;;;;5.00;2.13;;;11.90;99.90;;;;;;5079343;28;20203;-70
2022/02/07 11:50:22;;;;;;;7.30;2.10;;;11.80;99.90;;;;;;5067331;28;20260;-70
2022/02/07 11:52:54;;;;;;;9.93;2.50;;;11.90;99.90;;;;;;5061418;28;20211;-70
2022/02/07 11:55:33;;;;;;;6.93;2.27;;;12.00;99.90;;;;;;5054975;28;20188;-70
2022/02/07 11:58:08;;;;;;;6.57;2.20;;;12.20;99.90;;;;;;5065317;28;20782;-70
2022/02/07 12:00:45;;;;;;;6.90;2.20;;;12.10;99.90;;;;;;5081657;28;20266;-70
2022/02/07 12:03:15;;;;;;;4.00;2.30;;;12.10;99.90;;;;;;5081451;28;20233;-70
2022/02/07 12:05:45;;;;;;;4.80;2.37;;;12.50;99.90;;;;;;5068516;28;20661;-70
2022/02/07 12:08:17;;;;;;;7.70;2.40;;;12.70;99.90;;;;;;5063317;28;20199;-70
2022/02/07 12:11:08;;;;;;;6.17;2.00;;;12.30;99.90;;;;;;5062488;28;20199;-71
2022/02/07 12:13:39;;;;;;;5.37;2.10;;;12.30;99.90;;;;;;5073088;28;20486;-70
2022/02/07 12:16:17;;;;;;;6.90;2.17;;;12.40;99.90;;;;;;5059568;28;20276;-70
2022/02/07 12:19:10;;;;;;;7.00;2.80;;;12.50;99.90;;;;;;5058792;28;20195;-70
2022/02/07 12:21:39;;;;;;;6.03;2.20;;;12.70;99.90;;;;;;5062112;28;20678;-71
2022/02/07 12:24:09;;;;;;;7.43;3.27;;;12.50;99.90;;;;;;5080583;28;20644;-70
2022/02/07 12:26:43;;;;;;;6.87;3.13;;;12.50;99.90;;;;;;5078406;28;20204;-71
2022/02/07 12:29:25;;;;;;;9.57;2.70;;;12.70;99.90;;;;;;5080023;28;20230;-71
2022/02/07 12:31:54;;;;;;;4.77;1.80;;;12.60;99.90;;;;;;5083235;28;20214;-70
2022/02/07 12:34:26;;;;;;;8.90;2.07;;;12.60;99.90;;;;;;5063040;28;20199;-71
2022/02/07 12:36:56;;;;;;;9.67;2.00;;;12.50;99.90;;;;;;5078912;28;20303;-71
2022/02/07 12:39:25;;;;;;;4.70;1.60;;;12.30;99.90;;;;;;5067972;28;20199;-71
2022/02/07 12:41:59;;;;;;;3.00;1.80;;;12.30;99.90;;;;;;5077351;28;20226;-70
2022/02/07 12:44:29;;;;;;;4.70;1.70;;;12.30;99.90;;;;;;5066527;28;20200;-71
2022/02/07 12:46:57;;;;;;;5.70;1.77;;;12.40;99.90;;;;;;5065540;28;20188;-70
2022/02/07 12:49:28;;;;;;;5.30;2.43;;;12.50;99.90;;;;;;5063023;28;20269;-71
2022/02/07 12:51:56;;;;;;;5.83;2.00;;;12.20;99.90;;;;;;5063230;28;20287;-71
2022/02/07 12:54:26;;;;;;;8.27;1.90;;;12.10;99.90;;;;;;5084062;28;20256;-71
2022/02/07 12:57:00;;;;;;;4.30;2.00;;;12.00;99.90;;;;;;5070989;28;20293;-71
2022/02/07 12:59:28;;;;;;;5.60;2.10;;;11.90;99.90;;;;;;5080721;28;20728;-71
2022/02/07 13:01:57;;;;;;;7.60;2.10;;;11.90;99.90;;;;;;5056186;28;20204;-71
2022/02/07 13:04:25;;;;;;;5.67;2.03;;;12.00;99.90;;;;;;5075644;28;20203;-70
2022/02/07 13:06:56;;;;;;;5.07;1.90;;;12.10;99.90;;;;;;5081347;28;20203;-70
2022/02/07 13:09:28;;;;;;;7.37;2.10;;;12.10;99.90;;;;;;5069423;28;20206;-71
2022/02/07 13:12:04;;;;;;;5.60;2.00;;;11.80;99.90;;;;;;5059915;28;20222;-71
2022/02/07 13:14:37;;;;;;;6.20;1.90;;;11.40;99.90;;;;;;5080407;28;20202;-71
2022/02/07 13:17:06;;;;;;;3.03;1.63;;;11.30;99.90;;;;;;5062967;28;20219;-70
2022/02/07 13:19:36;;;;;;;4.00;1.80;;;11.30;99.90;;;;;;5086682;28;20199;-71
2022/02/07 13:22:05;;;;;;;9.33;1.93;;;11.30;99.90;;;;;;5080033;28;20212;-71
2022/02/07 13:24:36;;;;;;;8.50;2.20;;;11.40;99.90;;;;;;5064463;28;20657;-71
2022/02/07 13:27:09;;;;;;;6.80;2.00;;;11.30;99.90;;;;;;5083910;28;20196;-71
2022/02/07 13:29:42;;;;;;;6.80;1.90;;;11.30;99.90;;;;;;5087414;28;20195;-70
2022/02/07 13:32:12;;;;;;;2.53;1.80;;;11.20;99.90;;;;;;5063085;28;20188;-71
2022/02/07 13:34:41;;;;;;;3.80;1.93;;;11.10;99.90;;;;;;5076587;28;20249;-71
2022/02/07 13:37:13;;;;;;;5.00;2.00;;;11.00;99.90;;;;;;5075297;28;20701;-71
2022/02/07 13:39:55;;;;;;;4.37;1.90;;;11.20;99.90;;;;;;5069195;28;20226;-71
2022/02/07 13:42:31;;;;;;;5.27;2.53;;;11.20;99.90;;;;;;5077125;28;20203;-71
2022/02/07 13:45:01;;;;;;;7.43;2.40;;;11.00;99.90;;;;;;5077976;28;20207;-71
2022/02/07 13:47:30;;;;;;;5.33;2.00;;;11.10;99.90;;;;;;5082143;28;20253;-72
2022/02/07 13:50:02;;;;;;;4.87;2.30;;;10.80;99.90;;;;;;5057517;28;20233;-71
2022/02/07 13:52:33;;;;;;;7.17;2.10;;;10.60;99.90;;;;;;5067673;28;20286;-71
2022/02/07 13:55:17;;;;;;;5.50;2.27;;;10.60;99.90;;;;;;5078360;28;20196;-72
2022/02/07 13:58:06;;;;;;;8.50;1.90;;;10.70;99.90;;;;;;5037138;28;20692;-71
2022/02/07 14:00:36;;;;;;;4.87;2.50;;;10.50;99.90;;;;;;5080700;28;20294;-71
2022/02/07 14:03:11;;;;;;;5.67;2.27;;;10.40;99.90;;;;;;5057868;28;20196;-72
2022/02/07 14:05:41;;;;;;;1.87;1.77;;;10.30;99.90;;;;;;5064394;28;20278;-71
2022/02/07 14:08:12;;;;;;;8.00;1.93;;;10.30;99.90;;;;;;5074767;28;20246;-71
2022/02/07 14:10:42;;;;;;;3.80;1.80;;;10.30;99.90;;;;;;5075757;28;20204;-71
2022/02/07 14:13:15;;;;;;;2.63;1.90;;;10.40;99.90;;;;;;5078965;28;20187;-72
2022/02/07 14:15:45;;;;;;;3.93;1.80;;;10.40;99.90;;;;;;5076560;28;20207;-72
2022/02/07 14:18:16;;;;;;;4.37;2.10;;;10.20;99.90;;;;;;5074093;28;20250;-71
2022/02/07 14:20:45;;;;;;;3.87;2.17;;;10.30;99.90;;;;;;5077656;28;20639;-71
2022/02/07 14:23:15;;;;;;;6.70;2.27;;;10.20;99.90;;;;;;5079251;28;20184;-72
2022/02/07 14:25:47;;;;;;;8.37;2.03;;;10.30;99.90;;;;;;5073997;28;20207;-72
2022/02/07 14:28:18;;;;;;;6.70;2.23;;;10.20;99.90;;;;;;5079630;28;20223;-71
2022/02/07 14:30:46;;;;;;;8.23;2.70;;;10.30;99.90;;;;;;5076687;28;20683;-72
2022/02/07 14:33:15;;;;;;;10.10;2.23;;;10.30;99.90;;;;;;5056334;28;20272;-71
2022/02/07 14:35:44;;;;;;;9.33;2.70;;;10.30;99.90;;;;;;5078979;28;20225;-72
2022/02/07 14:38:13;;;;;;;8.03;3.30;;;10.40;99.90;;;;;;5060333;28;20611;-72
2022/02/07 14:40:42;;;;;;;16.07;3.37;;;10.30;99.90;;;;;;5078854;28;20228;-72
2022/02/07 14:43:14;;;;;;;10.47;3.73;;;10.20;99.90;;;;;;5069186;28;20200;-71
2022/02/07 14:45:55;;;;;;;9.63;3.20;;;10.10;99.90;;;;;;5087217;28;20206;-72
2022/02/07 14:48:24;;;;;;;6.30;3.10;;;10.00;99.90;;;;;;5078090;28;20212;-72
2022/02/07 14:50:53;;;;;;;8.73;3.40;;;9.90;99.90;;;;;;5057285;28;20598;-71